sensor_id;sensor_type;location;lat;lon;timestamp;P1;durP1;ratioP1;P2;durP2;ratioP2
253;SDS011;590;48.772;8.846;2022-09-03T00:00:54;3.90;;;3.60;;
253;SDS011;590;48.772;8.846;2022-09-03T00:03:26;3.50;;;3.30;;
253;SDS011;590;48.772;8.846;2022-09-03T00:06:02;4.17;;;3.93;;
253;SDS011;590;48.772;8.846;2022-09-03T00:08:37;3.63;;;3.43;;
253;SDS011;590;48.772;8.846;2022-09-03T00:11:11;3.83;;;3.63;;
253;SDS011;590;48.772;8.846;2022-09-03T00:13:46;3.27;;;3.07;;
253;SDS011;590;48.772;8.846;2022-09-03T00:16:24;3.90;;;3.70;;
253;SDS011;590;48.772;8.846;2022-09-03T00:18:58;3.10;;;2.90;;
253;SDS011;590;48.772;8.846;2022-09-03T00:21:33;4.50;;;4.13;;
253;SDS011;590;48.772;8.846;2022-09-03T00:24:05;3.87;;;3.67;;
253;SDS011;590;48.772;8.846;2022-09-03T00:26:41;3.83;;;3.67;;
253;SDS011;590;48.772;8.846;2022-09-03T00:29:15;3.40;;;3.20;;
253;SDS011;590;48.772;8.846;2022-09-03T00:31:46;3.67;;;3.47;;
253;SDS011;590;48.772;8.846;2022-09-03T00:34:19;3.53;;;3.33;;
253;SDS011;590;48.772;8.846;2022-09-03T00:36:52;3.93;;;3.73;;
253;SDS011;590;48.772;8.846;2022-09-03T00:39:21;3.63;;;3.43;;
253;SDS011;590;48.772;8.846;2022-09-03T00:41:54;3.70;;;3.50;;
253;SDS011;590;48.772;8.846;2022-09-03T00:44:40;3.57;;;3.37;;
253;SDS011;590;48.772;8.846;2022-09-03T00:47:18;3.70;;;3.50;;
253;SDS011;590;48.772;8.846;2022-09-03T00:49:56;5.00;;;3.90;;
253;SDS011;590;48.772;8.846;2022-09-03T00:52:40;4.30;;;4.00;;
253;SDS011;590;48.772;8.846;2022-09-03T00:55:15;5.30;;;3.50;;
253;SDS011;590;48.772;8.846;2022-09-03T00:57:57;4.57;;;4.27;;
253;SDS011;590;48.772;8.846;2022-09-03T01:00:40;4.40;;;4.10;;
253;SDS011;590;48.772;8.846;2022-09-03T01:03:09;4.10;;;3.53;;
253;SDS011;590;48.772;8.846;2022-09-03T01:05:48;5.07;;;4.07;;
253;SDS011;590;48.772;8.846;2022-09-03T01:08:42;4.00;;;3.80;;
253;SDS011;590;48.772;8.846;2022-09-03T01:11:29;3.90;;;3.70;;
253;SDS011;590;48.772;8.846;2022-09-03T01:14:14;4.37;;;4.07;;
253;SDS011;590;48.772;8.846;2022-09-03T01:16:51;4.43;;;3.83;;
253;SDS011;590;48.772;8.846;2022-09-03T01:19:42;3.80;;;3.60;;
253;SDS011;590;48.772;8.846;2022-09-03T01:25:29;3.90;;;3.70;;
253;SDS011;590;48.772;8.846;2022-09-03T01:28:15;4.70;;;4.40;;
253;SDS011;590;48.772;8.846;2022-09-03T01:30:53;4.47;;;4.17;;
253;SDS011;590;48.772;8.846;2022-09-03T01:33:26;3.67;;;3.47;;
253;SDS011;590;48.772;8.846;2022-09-03T01:36:04;3.87;;;3.67;;
253;SDS011;590;48.772;8.846;2022-09-03T01:38:39;3.70;;;3.50;;
253;SDS011;590;48.772;8.846;2022-09-03T01:41:14;3.23;;;3.10;;
253;SDS011;590;48.772;8.846;2022-09-03T01:44:13;3.87;;;3.67;;
253;SDS011;590;48.772;8.846;2022-09-03T01:46:54;3.90;;;3.70;;
253;SDS011;590;48.772;8.846;2022-09-03T01:49:30;3.93;;;3.73;;
253;SDS011;590;48.772;8.846;2022-09-03T01:52:09;4.50;;;4.20;;
253;SDS011;590;48.772;8.846;2022-09-03T01:54:43;3.70;;;3.50;;
253;SDS011;590;48.772;8.846;2022-09-03T01:57:30;4.33;;;4.03;;
253;SDS011;590;48.772;8.846;2022-09-03T02:00:12;4.00;;;3.80;;
253;SDS011;590;48.772;8.846;2022-09-03T02:02:43;7.30;;;4.47;;
253;SDS011;590;48.772;8.846;2022-09-03T02:05:15;4.30;;;4.00;;
253;SDS011;590;48.772;8.846;2022-09-03T02:07:45;4.73;;;3.93;;
253;SDS011;590;48.772;8.846;2022-09-03T02:10:15;4.50;;;4.23;;
253;SDS011;590;48.772;8.846;2022-09-03T02:12:45;4.50;;;4.20;;
253;SDS011;590;48.772;8.846;2022-09-03T02:15:19;4.00;;;3.80;;
253;SDS011;590;48.772;8.846;2022-09-03T02:17:48;3.70;;;3.50;;
253;SDS011;590;48.772;8.846;2022-09-03T02:20:22;4.17;;;3.93;;
253;SDS011;590;48.772;8.846;2022-09-03T02:22:53;4.00;;;3.80;;
253;SDS011;590;48.772;8.846;2022-09-03T02:25:23;4.10;;;3.90;;
253;SDS011;590;48.772;8.846;2022-09-03T02:27:56;4.10;;;3.90;;
253;SDS011;590;48.772;8.846;2022-09-03T02:30:27;4.47;;;4.17;;
253;SDS011;590;48.772;8.846;2022-09-03T02:32:55;4.80;;;4.50;;
253;SDS011;590;48.772;8.846;2022-09-03T02:35:23;4.33;;;4.03;;
253;SDS011;590;48.772;8.846;2022-09-03T02:37:51;4.30;;;3.57;;
253;SDS011;590;48.772;8.846;2022-09-03T02:40:19;4.53;;;4.23;;
253;SDS011;590;48.772;8.846;2022-09-03T02:42:47;3.63;;;3.43;;
253;SDS011;590;48.772;8.846;2022-09-03T02:45:20;4.40;;;4.10;;
253;SDS011;590;48.772;8.846;2022-09-03T02:47:55;4.00;;;3.80;;
253;SDS011;590;48.772;8.846;2022-09-03T02:50:25;4.67;;;4.37;;
253;SDS011;590;48.772;8.846;2022-09-03T02:52:53;4.83;;;4.27;;
253;SDS011;590;48.772;8.846;2022-09-03T02:55:21;3.63;;;3.43;;
253;SDS011;590;48.772;8.846;2022-09-03T02:57:49;4.50;;;4.23;;
253;SDS011;590;48.772;8.846;2022-09-03T03:00:17;4.73;;;4.43;;
253;SDS011;590;48.772;8.846;2022-09-03T03:02:45;4.03;;;3.70;;
253;SDS011;590;48.772;8.846;2022-09-03T03:05:17;4.03;;;3.83;;
253;SDS011;590;48.772;8.846;2022-09-03T03:07:50;3.87;;;3.67;;
253;SDS011;590;48.772;8.846;2022-09-03T03:10:18;6.70;;;4.37;;
253;SDS011;590;48.772;8.846;2022-09-03T03:12:46;3.80;;;3.60;;
253;SDS011;590;48.772;8.846;2022-09-03T03:15:14;4.70;;;4.40;;
253;SDS011;590;48.772;8.846;2022-09-03T03:17:42;4.10;;;3.90;;
253;SDS011;590;48.772;8.846;2022-09-03T03:20:10;4.80;;;4.50;;
253;SDS011;590;48.772;8.846;2022-09-03T03:22:39;4.10;;;3.90;;
253;SDS011;590;48.772;8.846;2022-09-03T03:25:08;4.33;;;4.03;;
253;SDS011;590;48.772;8.846;2022-09-03T03:27:36;3.63;;;3.43;;
253;SDS011;590;48.772;8.846;2022-09-03T03:30:08;4.07;;;3.87;;
253;SDS011;590;48.772;8.846;2022-09-03T03:32:37;4.40;;;4.10;;
253;SDS011;590;48.772;8.846;2022-09-03T03:35:06;4.17;;;3.93;;
253;SDS011;590;48.772;8.846;2022-09-03T03:37:37;3.90;;;3.70;;
253;SDS011;590;48.772;8.846;2022-09-03T03:40:06;3.90;;;3.70;;
253;SDS011;590;48.772;8.846;2022-09-03T03:42:35;4.03;;;3.83;;
253;SDS011;590;48.772;8.846;2022-09-03T03:45:04;4.23;;;3.97;;
253;SDS011;590;48.772;8.846;2022-09-03T03:47:32;3.97;;;3.77;;
253;SDS011;590;48.772;8.846;2022-09-03T03:50:00;4.40;;;4.10;;
253;SDS011;590;48.772;8.846;2022-09-03T03:52:28;4.37;;;4.07;;
253;SDS011;590;48.772;8.846;2022-09-03T03:54:56;4.77;;;4.00;;
253;SDS011;590;48.772;8.846;2022-09-03T03:57:28;4.43;;;4.13;;
253;SDS011;590;48.772;8.846;2022-09-03T03:59:57;4.73;;;4.33;;
253;SDS011;590;48.772;8.846;2022-09-03T04:02:25;4.00;;;3.80;;
253;SDS011;590;48.772;8.846;2022-09-03T04:04:53;4.60;;;4.30;;
253;SDS011;590;48.772;8.846;2022-09-03T04:07:21;4.90;;;4.27;;
253;SDS011;590;48.772;8.846;2022-09-03T04:09:49;4.80;;;4.50;;
253;SDS011;590;48.772;8.846;2022-09-03T04:12:17;4.83;;;4.53;;
253;SDS011;590;48.772;8.846;2022-09-03T04:14:46;4.27;;;4.00;;
253;SDS011;590;48.772;8.846;2022-09-03T04:17:14;4.83;;;4.53;;
253;SDS011;590;48.772;8.846;2022-09-03T04:19:45;4.37;;;4.07;;
253;SDS011;590;48.772;8.846;2022-09-03T04:22:13;4.57;;;4.27;;
253;SDS011;590;48.772;8.846;2022-09-03T04:24:41;4.63;;;4.33;;
253;SDS011;590;48.772;8.846;2022-09-03T04:27:09;4.40;;;4.10;;
253;SDS011;590;48.772;8.846;2022-09-03T04:29:37;5.07;;;4.77;;
253;SDS011;590;48.772;8.846;2022-09-03T04:32:07;4.50;;;4.20;;
253;SDS011;590;48.772;8.846;2022-09-03T04:34:52;4.60;;;4.30;;
253;SDS011;590;48.772;8.846;2022-09-03T04:37:20;5.20;;;4.90;;
253;SDS011;590;48.772;8.846;2022-09-03T04:39:48;4.50;;;4.20;;
253;SDS011;590;48.772;8.846;2022-09-03T04:42:16;4.77;;;4.47;;
253;SDS011;590;48.772;8.846;2022-09-03T04:44:44;5.17;;;4.87;;
253;SDS011;590;48.772;8.846;2022-09-03T04:47:13;4.67;;;4.37;;
253;SDS011;590;48.772;8.846;2022-09-03T04:49:41;5.07;;;4.77;;
253;SDS011;590;48.772;8.846;2022-09-03T04:52:10;5.10;;;4.80;;
253;SDS011;590;48.772;8.846;2022-09-03T04:54:38;5.10;;;4.80;;
253;SDS011;590;48.772;8.846;2022-09-03T04:57:06;4.30;;;4.00;;
253;SDS011;590;48.772;8.846;2022-09-03T04:59:33;4.83;;;4.53;;
253;SDS011;590;48.772;8.846;2022-09-03T05:02:02;5.00;;;4.60;;
253;SDS011;590;48.772;8.846;2022-09-03T05:04:31;4.70;;;4.40;;
253;SDS011;590;48.772;8.846;2022-09-03T05:06:59;5.17;;;4.87;;
253;SDS011;590;48.772;8.846;2022-09-03T05:09:27;5.17;;;4.87;;
253;SDS011;590;48.772;8.846;2022-09-03T05:11:55;5.30;;;5.00;;
253;SDS011;590;48.772;8.846;2022-09-03T05:14:23;5.83;;;5.53;;
253;SDS011;590;48.772;8.846;2022-09-03T05:16:51;5.17;;;4.87;;
253;SDS011;590;48.772;8.846;2022-09-03T05:19:19;5.33;;;5.03;;
253;SDS011;590;48.772;8.846;2022-09-03T05:21:48;5.33;;;5.03;;
253;SDS011;590;48.772;8.846;2022-09-03T05:24:16;5.70;;;5.40;;
253;SDS011;590;48.772;8.846;2022-09-03T05:26:44;5.73;;;5.43;;
253;SDS011;590;48.772;8.846;2022-09-03T05:29:14;5.00;;;4.70;;
253;SDS011;590;48.772;8.846;2022-09-03T05:31:42;5.57;;;5.27;;
253;SDS011;590;48.772;8.846;2022-09-03T05:34:10;5.30;;;5.00;;
253;SDS011;590;48.772;8.846;2022-09-03T05:36:43;5.00;;;4.70;;
253;SDS011;590;48.772;8.846;2022-09-03T05:39:13;6.00;;;5.10;;
253;SDS011;590;48.772;8.846;2022-09-03T05:41:41;5.10;;;4.80;;
253;SDS011;590;48.772;8.846;2022-09-03T05:44:09;5.87;;;5.57;;
253;SDS011;590;48.772;8.846;2022-09-03T05:46:37;5.20;;;4.90;;
253;SDS011;590;48.772;8.846;2022-09-03T05:49:05;5.57;;;5.27;;
253;SDS011;590;48.772;8.846;2022-09-03T05:51:34;6.20;;;5.90;;
253;SDS011;590;48.772;8.846;2022-09-03T05:54:05;6.50;;;6.10;;
253;SDS011;590;48.772;8.846;2022-09-03T05:56:37;5.87;;;5.57;;
253;SDS011;590;48.772;8.846;2022-09-03T05:59:07;6.13;;;5.40;;
253;SDS011;590;48.772;8.846;2022-09-03T06:01:36;5.77;;;5.47;;
253;SDS011;590;48.772;8.846;2022-09-03T06:04:06;6.03;;;5.73;;
253;SDS011;590;48.772;8.846;2022-09-03T06:06:36;5.87;;;5.57;;
253;SDS011;590;48.772;8.846;2022-09-03T06:09:06;5.10;;;4.80;;
253;SDS011;590;48.772;8.846;2022-09-03T06:11:40;5.10;;;4.80;;
253;SDS011;590;48.772;8.846;2022-09-03T06:14:09;5.60;;;5.30;;
253;SDS011;590;48.772;8.846;2022-09-03T06:16:38;5.70;;;5.40;;
253;SDS011;590;48.772;8.846;2022-09-03T06:19:08;5.03;;;4.73;;
253;SDS011;590;48.772;8.846;2022-09-03T06:21:37;5.70;;;5.40;;
253;SDS011;590;48.772;8.846;2022-09-03T06:24:08;5.57;;;5.27;;
253;SDS011;590;48.772;8.846;2022-09-03T06:26:37;5.80;;;5.50;;
253;SDS011;590;48.772;8.846;2022-09-03T06:29:08;5.50;;;5.20;;
253;SDS011;590;48.772;8.846;2022-09-03T06:31:39;5.80;;;5.50;;
253;SDS011;590;48.772;8.846;2022-09-03T06:34:08;5.70;;;5.40;;
253;SDS011;590;48.772;8.846;2022-09-03T06:36:37;5.43;;;5.13;;
253;SDS011;590;48.772;8.846;2022-09-03T06:39:06;6.33;;;5.97;;
253;SDS011;590;48.772;8.846;2022-09-03T06:41:34;5.90;;;5.60;;
253;SDS011;590;48.772;8.846;2022-09-03T06:44:04;5.83;;;5.53;;
253;SDS011;590;48.772;8.846;2022-09-03T06:46:37;6.40;;;6.00;;
253;SDS011;590;48.772;8.846;2022-09-03T06:49:07;5.83;;;5.53;;
253;SDS011;590;48.772;8.846;2022-09-03T06:51:36;5.30;;;5.00;;
253;SDS011;590;48.772;8.846;2022-09-03T06:54:05;5.30;;;5.00;;
253;SDS011;590;48.772;8.846;2022-09-03T06:56:36;5.93;;;5.63;;
253;SDS011;590;48.772;8.846;2022-09-03T06:59:08;5.60;;;5.30;;
253;SDS011;590;48.772;8.846;2022-09-03T07:01:37;5.50;;;5.20;;
253;SDS011;590;48.772;8.846;2022-09-03T07:04:10;5.60;;;5.30;;
253;SDS011;590;48.772;8.846;2022-09-03T07:06:41;6.10;;;5.80;;
253;SDS011;590;48.772;8.846;2022-09-03T07:09:10;5.70;;;5.40;;
253;SDS011;590;48.772;8.846;2022-09-03T07:11:38;5.17;;;4.87;;
253;SDS011;590;48.772;8.846;2022-09-03T07:14:13;5.80;;;5.50;;
253;SDS011;590;48.772;8.846;2022-09-03T07:16:42;5.37;;;5.07;;
253;SDS011;590;48.772;8.846;2022-09-03T07:19:11;5.03;;;4.73;;
253;SDS011;590;48.772;8.846;2022-09-03T07:21:39;5.33;;;5.03;;
253;SDS011;590;48.772;8.846;2022-09-03T07:24:15;4.80;;;4.50;;
253;SDS011;590;48.772;8.846;2022-09-03T07:26:44;5.40;;;5.10;;
253;SDS011;590;48.772;8.846;2022-09-03T07:29:15;5.10;;;4.80;;
253;SDS011;590;48.772;8.846;2022-09-03T07:31:46;4.97;;;4.67;;
253;SDS011;590;48.772;8.846;2022-09-03T07:34:17;4.80;;;4.50;;
253;SDS011;590;48.772;8.846;2022-09-03T07:36:47;5.33;;;5.03;;
253;SDS011;590;48.772;8.846;2022-09-03T07:39:16;4.77;;;4.47;;
253;SDS011;590;48.772;8.846;2022-09-03T07:41:45;6.10;;;5.80;;
253;SDS011;590;48.772;8.846;2022-09-03T07:44:14;4.70;;;4.40;;
253;SDS011;590;48.772;8.846;2022-09-03T07:46:46;4.80;;;4.50;;
253;SDS011;590;48.772;8.846;2022-09-03T07:49:16;3.90;;;3.70;;
253;SDS011;590;48.772;8.846;2022-09-03T07:51:45;4.37;;;4.07;;
253;SDS011;590;48.772;8.846;2022-09-03T07:54:16;4.47;;;4.17;;
253;SDS011;590;48.772;8.846;2022-09-03T07:56:44;4.37;;;4.07;;
253;SDS011;590;48.772;8.846;2022-09-03T07:59:12;4.93;;;4.63;;
253;SDS011;590;48.772;8.846;2022-09-03T08:01:42;4.60;;;4.30;;
253;SDS011;590;48.772;8.846;2022-09-03T08:04:10;4.00;;;3.80;;
253;SDS011;590;48.772;8.846;2022-09-03T08:06:38;4.30;;;4.00;;
253;SDS011;590;48.772;8.846;2022-09-03T08:09:08;4.47;;;4.17;;
253;SDS011;590;48.772;8.846;2022-09-03T08:11:39;4.77;;;4.47;;
253;SDS011;590;48.772;8.846;2022-09-03T08:14:09;4.40;;;4.10;;
253;SDS011;590;48.772;8.846;2022-09-03T08:16:39;4.30;;;3.80;;
253;SDS011;590;48.772;8.846;2022-09-03T08:19:09;4.57;;;4.27;;
253;SDS011;590;48.772;8.846;2022-09-03T08:21:38;4.93;;;4.63;;
253;SDS011;590;48.772;8.846;2022-09-03T08:24:08;4.60;;;4.30;;
253;SDS011;590;48.772;8.846;2022-09-03T08:26:37;4.30;;;4.00;;
253;SDS011;590;48.772;8.846;2022-09-03T08:29:13;4.93;;;4.63;;
253;SDS011;590;48.772;8.846;2022-09-03T08:31:41;4.33;;;4.03;;
253;SDS011;590;48.772;8.846;2022-09-03T08:34:11;4.40;;;4.10;;
253;SDS011;590;48.772;8.846;2022-09-03T08:36:40;4.43;;;4.13;;
253;SDS011;590;48.772;8.846;2022-09-03T08:39:09;4.10;;;3.90;;
253;SDS011;590;48.772;8.846;2022-09-03T08:41:40;5.27;;;4.50;;
253;SDS011;590;48.772;8.846;2022-09-03T08:44:21;4.57;;;4.27;;
253;SDS011;590;48.772;8.846;2022-09-03T08:46:53;4.67;;;4.37;;
253;SDS011;590;48.772;8.846;2022-09-03T08:49:27;4.13;;;3.90;;
253;SDS011;590;48.772;8.846;2022-09-03T08:52:01;3.60;;;3.40;;
253;SDS011;590;48.772;8.846;2022-09-03T08:54:32;4.93;;;4.63;;
253;SDS011;590;48.772;8.846;2022-09-03T08:57:03;4.03;;;3.83;;
253;SDS011;590;48.772;8.846;2022-09-03T08:59:34;4.30;;;4.00;;
253;SDS011;590;48.772;8.846;2022-09-03T09:02:05;4.40;;;4.10;;
253;SDS011;590;48.772;8.846;2022-09-03T09:04:49;5.37;;;4.53;;
253;SDS011;590;48.772;8.846;2022-09-03T09:07:26;3.93;;;3.73;;
253;SDS011;590;48.772;8.846;2022-09-03T09:09:59;3.90;;;3.70;;
253;SDS011;590;48.772;8.846;2022-09-03T09:12:38;4.93;;;4.63;;
253;SDS011;590;48.772;8.846;2022-09-03T09:15:29;4.17;;;3.93;;
253;SDS011;590;48.772;8.846;2022-09-03T09:18:09;3.53;;;3.33;;
253;SDS011;590;48.772;8.846;2022-09-03T09:20:47;3.90;;;3.70;;
253;SDS011;590;48.772;8.846;2022-09-03T09:23:18;3.70;;;3.50;;
253;SDS011;590;48.772;8.846;2022-09-03T09:25:51;4.77;;;4.47;;
253;SDS011;590;48.772;8.846;2022-09-03T09:28:23;4.60;;;4.30;;
253;SDS011;590;48.772;8.846;2022-09-03T09:30:53;3.83;;;3.63;;
253;SDS011;590;48.772;8.846;2022-09-03T09:33:23;4.17;;;3.93;;
253;SDS011;590;48.772;8.846;2022-09-03T09:35:53;4.70;;;4.40;;
253;SDS011;590;48.772;8.846;2022-09-03T09:38:26;3.70;;;3.50;;
253;SDS011;590;48.772;8.846;2022-09-03T09:40:55;3.50;;;3.30;;
253;SDS011;590;48.772;8.846;2022-09-03T09:43:25;3.67;;;3.47;;
253;SDS011;590;48.772;8.846;2022-09-03T09:45:53;3.20;;;3.00;;
253;SDS011;590;48.772;8.846;2022-09-03T09:48:21;4.30;;;4.00;;
253;SDS011;590;48.772;8.846;2022-09-03T09:51:04;3.87;;;3.67;;
253;SDS011;590;48.772;8.846;2022-09-03T09:53:33;4.00;;;3.80;;
253;SDS011;590;48.772;8.846;2022-09-03T09:56:01;4.00;;;3.80;;
253;SDS011;590;48.772;8.846;2022-09-03T09:58:30;3.90;;;3.70;;
253;SDS011;590;48.772;8.846;2022-09-03T10:01:00;3.67;;;3.47;;
253;SDS011;590;48.772;8.846;2022-09-03T10:03:31;3.50;;;3.30;;
253;SDS011;590;48.772;8.846;2022-09-03T10:06:02;4.30;;;4.00;;
253;SDS011;590;48.772;8.846;2022-09-03T10:08:47;4.10;;;3.90;;
253;SDS011;590;48.772;8.846;2022-09-03T10:11:16;3.83;;;3.63;;
253;SDS011;590;48.772;8.846;2022-09-03T10:13:46;4.00;;;3.80;;
253;SDS011;590;48.772;8.846;2022-09-03T10:16:19;4.50;;;4.20;;
253;SDS011;590;48.772;8.846;2022-09-03T10:18:56;3.90;;;3.70;;
253;SDS011;590;48.772;8.846;2022-09-03T10:21:31;3.67;;;3.47;;
253;SDS011;590;48.772;8.846;2022-09-03T10:24:16;5.20;;;4.77;;
253;SDS011;590;48.772;8.846;2022-09-03T10:26:56;4.57;;;4.27;;
253;SDS011;590;48.772;8.846;2022-09-03T10:29:24;3.80;;;3.60;;
253;SDS011;590;48.772;8.846;2022-09-03T10:31:58;3.33;;;3.17;;
253;SDS011;590;48.772;8.846;2022-09-03T10:34:37;3.80;;;3.50;;
253;SDS011;590;48.772;8.846;2022-09-03T10:37:16;4.47;;;4.17;;
253;SDS011;590;48.772;8.846;2022-09-03T10:39:51;3.60;;;3.40;;
253;SDS011;590;48.772;8.846;2022-09-03T10:42:34;3.80;;;3.60;;
253;SDS011;590;48.772;8.846;2022-09-03T10:45:14;4.33;;;4.03;;
253;SDS011;590;48.772;8.846;2022-09-03T10:48:00;3.70;;;3.50;;
253;SDS011;590;48.772;8.846;2022-09-03T10:50:41;3.80;;;3.60;;
253;SDS011;590;48.772;8.846;2022-09-03T10:53:19;4.10;;;3.90;;
253;SDS011;590;48.772;8.846;2022-09-03T10:56:10;3.23;;;3.03;;
253;SDS011;590;48.772;8.846;2022-09-03T11:01:44;3.60;;;3.40;;
253;SDS011;590;48.772;8.846;2022-09-03T11:04:18;3.90;;;3.73;;
253;SDS011;590;48.772;8.846;2022-09-03T11:06:56;3.63;;;3.43;;
253;SDS011;590;48.772;8.846;2022-09-03T11:09:30;3.80;;;3.60;;
253;SDS011;590;48.772;8.846;2022-09-03T11:12:04;3.50;;;3.30;;
253;SDS011;590;48.772;8.846;2022-09-03T11:14:37;4.10;;;3.90;;
253;SDS011;590;48.772;8.846;2022-09-03T11:17:10;4.23;;;3.97;;
253;SDS011;590;48.772;8.846;2022-09-03T11:19:44;4.03;;;3.83;;
253;SDS011;590;48.772;8.846;2022-09-03T11:22:16;3.83;;;3.63;;
253;SDS011;590;48.772;8.846;2022-09-03T11:24:50;3.67;;;3.47;;
253;SDS011;590;48.772;8.846;2022-09-03T11:27:28;3.30;;;3.10;;
253;SDS011;590;48.772;8.846;2022-09-03T11:30:01;3.90;;;3.70;;
253;SDS011;590;48.772;8.846;2022-09-03T11:32:39;3.70;;;3.50;;
253;SDS011;590;48.772;8.846;2022-09-03T11:35:24;3.57;;;3.37;;
253;SDS011;590;48.772;8.846;2022-09-03T11:37:57;4.03;;;3.83;;
253;SDS011;590;48.772;8.846;2022-09-03T11:40:35;4.60;;;4.20;;
253;SDS011;590;48.772;8.846;2022-09-03T11:43:04;3.60;;;3.40;;
253;SDS011;590;48.772;8.846;2022-09-03T11:45:35;4.10;;;3.90;;
253;SDS011;590;48.772;8.846;2022-09-03T11:48:17;3.50;;;3.30;;
253;SDS011;590;48.772;8.846;2022-09-03T11:50:59;4.03;;;3.83;;
253;SDS011;590;48.772;8.846;2022-09-03T11:53:32;7.33;;;5.20;;
253;SDS011;590;48.772;8.846;2022-09-03T11:56:15;4.70;;;4.40;;
253;SDS011;590;48.772;8.846;2022-09-03T11:58:44;4.07;;;3.87;;
253;SDS011;590;48.772;8.846;2022-09-03T12:01:13;4.63;;;4.33;;
253;SDS011;590;48.772;8.846;2022-09-03T12:03:44;4.43;;;4.13;;
253;SDS011;590;48.772;8.846;2022-09-03T12:09:16;5.20;;;4.90;;
253;SDS011;590;48.772;8.846;2022-09-03T12:11:57;4.80;;;4.50;;
253;SDS011;590;48.772;8.846;2022-09-03T12:14:35;5.27;;;4.80;;
253;SDS011;590;48.772;8.846;2022-09-03T12:17:15;4.67;;;4.37;;
253;SDS011;590;48.772;8.846;2022-09-03T12:19:49;4.97;;;4.67;;
253;SDS011;590;48.772;8.846;2022-09-03T12:22:20;4.03;;;3.83;;
253;SDS011;590;48.772;8.846;2022-09-03T12:24:49;2.80;;;2.37;;
253;SDS011;590;48.772;8.846;2022-09-03T12:27:20;1.97;;;1.80;;
253;SDS011;590;48.772;8.846;2022-09-03T12:29:54;1.70;;;1.60;;
253;SDS011;590;48.772;8.846;2022-09-03T12:32:26;3.53;;;2.40;;
253;SDS011;590;48.772;8.846;2022-09-03T12:34:57;2.50;;;1.90;;
253;SDS011;590;48.772;8.846;2022-09-03T12:37:36;1.70;;;1.60;;
253;SDS011;590;48.772;8.846;2022-09-03T12:40:25;2.13;;;1.97;;
253;SDS011;590;48.772;8.846;2022-09-03T12:43:10;4.20;;;2.30;;
253;SDS011;590;48.772;8.846;2022-09-03T12:45:59;2.27;;;2.07;;
253;SDS011;590;48.772;8.846;2022-09-03T12:48:35;2.40;;;2.20;;
253;SDS011;590;48.772;8.846;2022-09-03T12:51:08;2.10;;;1.83;;
253;SDS011;590;48.772;8.846;2022-09-03T12:53:56;1.90;;;1.80;;
253;SDS011;590;48.772;8.846;2022-09-03T12:56:26;4.10;;;2.30;;
253;SDS011;590;48.772;8.846;2022-09-03T12:59:00;2.60;;;2.40;;
253;SDS011;590;48.772;8.846;2022-09-03T13:01:32;2.27;;;1.83;;
253;SDS011;590;48.772;8.846;2022-09-03T13:04:07;1.93;;;1.83;;
253;SDS011;590;48.772;8.846;2022-09-03T13:06:41;5.77;;;1.90;;
253;SDS011;590;48.772;8.846;2022-09-03T13:09:18;2.00;;;1.70;;
253;SDS011;590;48.772;8.846;2022-09-03T13:11:48;2.10;;;1.50;;
253;SDS011;590;48.772;8.846;2022-09-03T13:14:19;1.53;;;1.50;;
253;SDS011;590;48.772;8.846;2022-09-03T13:17:03;1.57;;;1.50;;
253;SDS011;590;48.772;8.846;2022-09-03T13:20:03;2.00;;;1.80;;
253;SDS011;590;48.772;8.846;2022-09-03T13:22:57;1.70;;;1.63;;
253;SDS011;590;48.772;8.846;2022-09-03T13:25:49;1.97;;;1.87;;
253;SDS011;590;48.772;8.846;2022-09-03T13:28:35;1.27;;;1.20;;
253;SDS011;590;48.772;8.846;2022-09-03T13:31:21;1.70;;;1.60;;
253;SDS011;590;48.772;8.846;2022-09-03T13:33:56;1.77;;;1.67;;
253;SDS011;590;48.772;8.846;2022-09-03T13:36:29;2.27;;;2.07;;
253;SDS011;590;48.772;8.846;2022-09-03T13:39:03;1.87;;;1.80;;
253;SDS011;590;48.772;8.846;2022-09-03T13:41:45;1.67;;;1.60;;
253;SDS011;590;48.772;8.846;2022-09-03T13:44:19;1.70;;;1.60;;
253;SDS011;590;48.772;8.846;2022-09-03T13:46:52;2.43;;;1.57;;
253;SDS011;590;48.772;8.846;2022-09-03T13:49:26;1.67;;;1.57;;
253;SDS011;590;48.772;8.846;2022-09-03T13:52:19;1.87;;;1.77;;
253;SDS011;590;48.772;8.846;2022-09-03T13:54:56;1.87;;;1.77;;
253;SDS011;590;48.772;8.846;2022-09-03T13:57:31;3.17;;;1.80;;
253;SDS011;590;48.772;8.846;2022-09-03T14:00:06;1.90;;;1.80;;
253;SDS011;590;48.772;8.846;2022-09-03T14:02:50;2.17;;;1.97;;
253;SDS011;590;48.772;8.846;2022-09-03T14:05:32;2.37;;;2.17;;
253;SDS011;590;48.772;8.846;2022-09-03T14:08:08;2.40;;;2.20;;
253;SDS011;590;48.772;8.846;2022-09-03T14:10:50;2.40;;;2.20;;
253;SDS011;590;48.772;8.846;2022-09-03T14:13:25;1.67;;;1.57;;
253;SDS011;590;48.772;8.846;2022-09-03T14:16:03;1.83;;;1.73;;
253;SDS011;590;48.772;8.846;2022-09-03T14:18:38;1.83;;;1.70;;
253;SDS011;590;48.772;8.846;2022-09-03T14:21:13;1.90;;;1.47;;
253;SDS011;590;48.772;8.846;2022-09-03T14:23:46;2.43;;;2.23;;
253;SDS011;590;48.772;8.846;2022-09-03T14:26:19;1.80;;;1.70;;
253;SDS011;590;48.772;8.846;2022-09-03T14:29:05;3.30;;;2.10;;
253;SDS011;590;48.772;8.846;2022-09-03T14:32:03;2.43;;;2.23;;
253;SDS011;590;48.772;8.846;2022-09-03T14:34:44;1.80;;;1.70;;
253;SDS011;590;48.772;8.846;2022-09-03T14:37:38;2.33;;;2.13;;
253;SDS011;590;48.772;8.846;2022-09-03T14:40:29;2.40;;;2.20;;
253;SDS011;590;48.772;8.846;2022-09-03T14:43:05;2.00;;;1.90;;
253;SDS011;590;48.772;8.846;2022-09-03T14:45:47;3.80;;;2.50;;
253;SDS011;590;48.772;8.846;2022-09-03T14:48:35;5.63;;;2.40;;
253;SDS011;590;48.772;8.846;2022-09-03T14:51:32;2.13;;;1.97;;
253;SDS011;590;48.772;8.846;2022-09-03T14:54:13;2.13;;;1.97;;
253;SDS011;590;48.772;8.846;2022-09-03T14:56:59;2.30;;;1.77;;
253;SDS011;590;48.772;8.846;2022-09-03T14:59:42;1.93;;;1.83;;
253;SDS011;590;48.772;8.846;2022-09-03T15:05:41;2.20;;;2.00;;
253;SDS011;590;48.772;8.846;2022-09-03T15:08:19;2.13;;;2.00;;
253;SDS011;590;48.772;8.846;2022-09-03T15:11:02;2.50;;;2.30;;
253;SDS011;590;48.772;8.846;2022-09-03T15:13:41;2.03;;;1.90;;
253;SDS011;590;48.772;8.846;2022-09-03T15:16:23;2.13;;;2.00;;
253;SDS011;590;48.772;8.846;2022-09-03T15:19:07;2.27;;;2.07;;
253;SDS011;590;48.772;8.846;2022-09-03T15:21:44;2.13;;;1.97;;
253;SDS011;590;48.772;8.846;2022-09-03T15:24:38;2.30;;;2.10;;
253;SDS011;590;48.772;8.846;2022-09-03T15:27:29;2.23;;;2.07;;
253;SDS011;590;48.772;8.846;2022-09-03T15:30:11;2.00;;;1.90;;
253;SDS011;590;48.772;8.846;2022-09-03T15:32:46;2.73;;;2.53;;
253;SDS011;590;48.772;8.846;2022-09-03T15:38:24;2.00;;;1.90;;
253;SDS011;590;48.772;8.846;2022-09-03T15:41:05;2.50;;;2.30;;
253;SDS011;590;48.772;8.846;2022-09-03T15:43:36;2.27;;;2.07;;
253;SDS011;590;48.772;8.846;2022-09-03T15:46:08;2.80;;;2.60;;
253;SDS011;590;48.772;8.846;2022-09-03T15:48:44;2.27;;;2.07;;
253;SDS011;590;48.772;8.846;2022-09-03T15:51:17;2.43;;;2.23;;
253;SDS011;590;48.772;8.846;2022-09-03T15:53:51;2.40;;;2.20;;
253;SDS011;590;48.772;8.846;2022-09-03T15:56:26;2.47;;;2.27;;
253;SDS011;590;48.772;8.846;2022-09-03T15:58:59;2.53;;;2.30;;
253;SDS011;590;48.772;8.846;2022-09-03T16:01:38;2.80;;;2.60;;
253;SDS011;590;48.772;8.846;2022-09-03T16:04:18;2.27;;;2.10;;
253;SDS011;590;48.772;8.846;2022-09-03T16:06:56;2.50;;;2.30;;
253;SDS011;590;48.772;8.846;2022-09-03T16:09:34;2.30;;;2.10;;
253;SDS011;590;48.772;8.846;2022-09-03T16:12:16;2.73;;;2.53;;
253;SDS011;590;48.772;8.846;2022-09-03T16:14:54;4.50;;;4.20;;
253;SDS011;590;48.772;8.846;2022-09-03T16:17:29;2.87;;;2.77;;
253;SDS011;590;48.772;8.846;2022-09-03T16:19:59;3.40;;;3.20;;
253;SDS011;590;48.772;8.846;2022-09-03T16:22:31;2.33;;;2.07;;
253;SDS011;590;48.772;8.846;2022-09-03T16:25:11;4.37;;;4.10;;
253;SDS011;590;48.772;8.846;2022-09-03T16:27:49;3.03;;;2.83;;
253;SDS011;590;48.772;8.846;2022-09-03T16:30:25;4.40;;;4.10;;
253;SDS011;590;48.772;8.846;2022-09-03T16:33:05;3.60;;;3.40;;
253;SDS011;590;48.772;8.846;2022-09-03T16:35:46;3.17;;;2.97;;
253;SDS011;590;48.772;8.846;2022-09-03T16:38:26;3.57;;;2.50;;
253;SDS011;590;48.772;8.846;2022-09-03T16:41:02;2.63;;;2.30;;
253;SDS011;590;48.772;8.846;2022-09-03T16:43:43;3.00;;;2.80;;